Time,TemperatureF,DewpointF,PressureIn,WindDirection,WindDirectionDegrees,WindSpeedMPH,WindSpeedGustMPH,Humidity,HourlyPrecipIn,Conditions,Clouds,dailyrainin,SolarRadiationWatts/m^2,SoftwareType,DateUTC
2013-08-02 00:03:00,55.3,52.7,29.90,NW,311,0.0,0.0,91,0.00,,,0.00,0,HR-IXPWINDi_r2_v1.2.,2013-08-02 07:03:00,
2013-08-02 00:09:00,55.3,52.7,29.90,NW,311,0.0,0.0,91,0.00,,,0.00,0,HR-IXPWINDi_r2_v1.2.,2013-08-02 07:09:00,
2013-08-02 00:14:00,55.1,52.8,29.90,NW,311,0.0,0.0,92,0.00,,,0.00,0,HR-IXPWINDi_r2_v1.2.,2013-08-02 07:14:00,
2013-08-02 00:19:00,54.8,52.5,29.90,NW,311,0.0,0.0,92,0.00,,,0.00,0,HR-IXPWINDi_r2_v1.2.,2013-08-02 07:19:00,
2013-08-02 00:24:00,55.0,52.7,29.90,NW,311,0.0,0.0,92,0.00,,,0.00,0,HR-IXPWINDi_r2_v1.2.,2013-08-02 07:24:00,
2013-08-02 00:29:00,55.2,53.1,29.90,NW,311,0.0,0.0,93,0.00,,,0.00,0,HR-IXPWINDi_r2_v1.2.,2013-08-02 07:29:00,
2013-08-02 00:34:00,55.0,52.7,29.90,NW,311,0.0,0.0,92,0.00,,,0.00,0,HR-IXPWINDi_r2_v1.2.,2013-08-02 07:34:00,
2013-08-02 00:39:00,55.0,52.9,29.90,NW,311,0.0,1.0,93,0.00,,,0.00,0,HR-IXPWINDi_r2_v1.2.,2013-08-02 07:39:00,
2013-08-02 00:44:00,54.9,52.6,29.90,NW,311,0.0,1.0,92,0.00,,,0.00,0,HR-IXPWINDi_r2_v1.2.,2013-08-02 07:44:00,
2013-08-02 00:49:00,54.5,52.2,29.90,NW,311,0.0,1.0,92,0.00,,,0.00,0,HR-IXPWINDi_r2_v1.2.,2013-08-02 07:49:00,
2013-08-02 00:54:00,54.6,52.5,29.90,NW,311,0.0,1.0,93,0.00,,,0.00,0,HR-IXPWINDi_r2_v1.2.,2013-08-02 07:54:00,
2013-08-02 01:00:00,54.6,52.5,29.90,NW,311,0.0,0.0,93,0.00,,,0.00,0,HR-IXPWINDi_r2_v1.2.,2013-08-02 08:00:00,
2013-08-02 01:05:00,54.4,52.4,29.90,NW,311,0.0,1.0,93,0.00,,,0.00,0,HR-IXPWINDi_r2_v1.2.,2013-08-02 08:05:00,
2013-08-02 01:10:00,54.6,52.5,29.90,NW,311,0.0,1.0,93,0.00,,,0.00,0,HR-IXPWINDi_r2_v1.2.,2013-08-02 08:10:00,
2013-08-02 01:16:00,54.5,52.5,29.90,NW,311,0.0,1.0,93,0.00,,,0.00,0,HR-IXPWINDi_r2_v1.2.,2013-08-02 08:16:00,
2013-08-02 01:21:00,54.5,52.5,29.90,NW,311,0.0,2.0,93,0.00,,,0.00,0,HR-IXPWINDi_r2_v1.2.,2013-08-02 08:21:00,
2013-08-02 01:26:00,54.4,52.4,29.90,NW,311,0.0,2.0,93,0.00,,,0.00,0,HR-IXPWINDi_r2_v1.2.,2013-08-02 08:26:00,
2013-08-02 01:31:00,54.4,52.4,29.90,NW,311,1.0,1.0,93,0.00,,,0.00,0,HR-IXPWINDi_r2_v1.2.,2013-08-02 08:31:00,
2013-08-02 01:36:00,54.4,52.4,29.90,NW,311,0.0,1.0,93,0.00,,,0.00,0,HR-IXPWINDi_r2_v1.2.,2013-08-02 08:36:00,
2013-08-02 01:41:00,54.1,52.1,29.90,NW,311,0.0,1.0,93,0.00,,,0.00,0,HR-IXPWINDi_r2_v1.2.,2013-08-02 08:41:00,
2013-08-02 01:47:00,53.9,51.9,29.90,NW,311,0.0,1.0,93,0.00,,,0.00,0,HR-IXPWINDi_r2_v1.2.,2013-08-02 08:47:00,
2013-08-02 01:52:00,53.9,51.9,29.90,NW,311,1.0,1.0,93,0.00,,,0.00,0,HR-IXPWINDi_r2_v1.2.,2013-08-02 08:52:00,
2013-08-02 01:57:00,53.7,51.7,29.90,NW,311,0.0,1.0,93,0.00,,,0.00,0,HR-IXPWINDi_r2_v1.2.,2013-08-02 08:57:00,
2013-08-02 02:02:00,53.7,51.7,29.89,NW,311,0.0,1.0,93,0.00,,,0.00,0,HR-IXPWINDi_r2_v1.2.,2013-08-02 09:02:00,
2013-08-02 02:07:00,53.5,51.5,29.90,NW,311,0.0,1.0,93,0.00,,,0.00,0,HR-IXPWINDi_r2_v1.2.,2013-08-02 09:07:00,
2013-08-02 02:13:00,53.5,51.7,29.90,NW,311,0.0,1.0,94,0.00,,,0.00,0,HR-IXPWINDi_r2_v1.2.,2013-08-02 09:13:00,
2013-08-02 02:18:00,53.5,51.7,29.90,NW,311,0.0,2.0,94,0.00,,,0.00,0,HR-IXPWINDi_r2_v1.2.,2013-08-02 09:18:00,
2013-08-02 02:23:00,53.5,51.7,29.90,NW,311,0.0,2.0,94,0.00,,,0.00,0,HR-IXPWINDi_r2_v1.2.,2013-08-02 09:23:00,
2013-08-02 02:28:00,53.6,51.8,29.90,NW,311,0.0,2.0,94,0.00,,,0.00,0,HR-IXPWINDi_r2_v1.2.,2013-08-02 09:28:00,
2013-08-02 02:34:00,53.5,51.5,29.90,NW,311,0.0,2.0,93,0.00,,,0.00,0,HR-IXPWINDi_r2_v1.2.,2013-08-02 09:34:00,
2013-08-02 02:39:00,53.2,51.2,29.90,NW,311,0.0,1.0,93,0.00,,,0.00,0,HR-IXPWINDi_r2_v1.2.,2013-08-02 09:39:00,
2013-08-02 02:44:00,53.1,51.4,29.90,NW,311,1.0,1.0,94,0.00,,,0.00,0,HR-IXPWINDi_r2_v1.2.,2013-08-02 09:44:00,
2013-08-02 02:49:00,53.3,51.6,29.90,NW,311,0.0,1.0,94,0.00,,,0.00,0,HR-IXPWINDi_r2_v1.2.,2013-08-02 09:49:00,
2013-08-02 02:54:00,53.5,51.7,29.90,NW,311,0.0,1.0,94,0.00,,,0.00,0,HR-IXPWINDi_r2_v1.2.,2013-08-02 09:54:00,
2013-08-02 02:59:00,53.7,51.9,29.90,NW,311,2.0,2.0,94,0.00,,,0.00,0,HR-IXPWINDi_r2_v1.2.,2013-08-02 09:59:00,
2013-08-02 03:04:00,54.0,52.2,29.90,NW,311,0.0,2.0,94,0.00,,,0.00,0,HR-IXPWINDi_r2_v1.2.,2013-08-02 10:04:00,
2013-08-02 03:09:00,54.1,52.3,29.89,NW,311,1.0,2.0,94,0.00,,,0.00,0,HR-IXPWINDi_r2_v1.2.,2013-08-02 10:09:00,
2013-08-02 03:14:00,54.1,52.3,29.90,NW,311,1.0,2.0,94,0.00,,,0.00,0,HR-IXPWINDi_r2_v1.2.,2013-08-02 10:14:00,
2013-08-02 03:19:00,54.1,52.1,29.90,NW,311,0.0,2.0,93,0.00,,,0.00,0,HR-IXPWINDi_r2_v1.2.,2013-08-02 10:19:00,
2013-08-02 03:24:00,53.9,51.9,29.89,NW,311,0.0,2.0,93,0.00,,,0.00,0,HR-IXPWINDi_r2_v1.2.,2013-08-02 10:24:00,
2013-08-02 03:30:00,53.6,51.6,29.89,NW,311,0.0,2.0,93,0.00,,,0.00,0,HR-IXPWINDi_r2_v1.2.,2013-08-02 10:30:00,
2013-08-02 03:35:00,53.3,51.3,29.89,NW,311,0.0,1.0,93,0.00,,,0.00,0,HR-IXPWINDi_r2_v1.2.,2013-08-02 10:35:00,
2013-08-02 03:40:00,53.2,51.2,29.89,NW,311,0.0,1.0,93,0.00,,,0.00,0,HR-IXPWINDi_r2_v1.2.,2013-08-02 10:40:00,
2013-08-02 03:45:00,53.2,51.2,29.89,NW,311,0.0,1.0,93,0.00,,,0.00,0,HR-IXPWINDi_r2_v1.2.,2013-08-02 10:45:00,
2013-08-02 03:50:00,53.5,51.7,29.89,NW,311,0.0,2.0,94,0.00,,,0.00,0,HR-IXPWINDi_r2_v1.2.,2013-08-02 10:50:00,
2013-08-02 03:55:00,53.2,51.2,29.89,NW,311,0.0,2.0,93,0.00,,,0.00,0,HR-IXPWINDi_r2_v1.2.,2013-08-02 10:55:00,
2013-08-02 04:00:00,53.1,51.4,29.89,NW,311,1.0,2.0,94,0.00,,,0.00,0,HR-IXPWINDi_r2_v1.2.,2013-08-02 11:00:00,
2013-08-02 04:06:00,53.1,51.1,29.89,NW,311,0.0,2.0,93,0.00,,,0.00,0,HR-IXPWINDi_r2_v1.2.,2013-08-02 11:06:00,
2013-08-02 04:11:00,52.9,51.2,29.89,NW,311,0.0,2.0,94,0.00,,,0.00,0,HR-IXPWINDi_r2_v1.2.,2013-08-02 11:11:00,
2013-08-02 04:17:00,52.8,51.1,29.89,NW,311,0.0,1.0,94,0.00,,,0.00,0,HR-IXPWINDi_r2_v1.2.,2013-08-02 11:17:00,
2013-08-02 04:22:00,52.4,50.4,29.89,NW,311,0.0,0.0,93,0.00,,,0.00,0,HR-IXPWINDi_r2_v1.2.,2013-08-02 11:22:00,
2013-08-02 04:28:00,52.4,50.7,29.89,NW,311,0.0,1.0,94,0.00,,,0.00,0,HR-IXPWINDi_r2_v1.2.,2013-08-02 11:28:00,
2013-08-02 04:33:00,52.2,50.5,29.89,NW,311,0.0,1.0,94,0.00,,,0.00,0,HR-IXPWINDi_r2_v1.2.,2013-08-02 11:33:00,
2013-08-02 04:38:00,52.2,50.5,29.89,NW,311,0.0,1.0,94,0.00,,,0.00,0,HR-IXPWINDi_r2_v1.2.,2013-08-02 11:38:00,
2013-08-02 04:43:00,52.1,50.4,29.88,NW,311,0.0,1.0,94,0.00,,,0.00,0,HR-IXPWINDi_r2_v1.2.,2013-08-02 11:43:00,
2013-08-02 04:48:00,52.0,50.3,29.88,NW,311,0.0,1.0,94,0.00,,,0.00,0,HR-IXPWINDi_r2_v1.2.,2013-08-02 11:48:00,
2013-08-02 04:53:00,52.0,50.3,29.89,NW,311,0.0,1.0,94,0.00,,,0.00,0,HR-IXPWINDi_r2_v1.2.,2013-08-02 11:53:00,
2013-08-02 04:58:00,52.0,50.3,29.89,NW,311,0.0,1.0,94,0.00,,,0.00,0,HR-IXPWINDi_r2_v1.2.,2013-08-02 11:58:00,
2013-08-02 05:04:00,51.5,49.8,29.89,NW,311,0.0,1.0,94,0.00,,,0.00,0,HR-IXPWINDi_r2_v1.2.,2013-08-02 12:04:00,
2013-08-02 05:09:00,51.5,49.8,29.89,NW,311,0.0,1.0,94,0.00,,,0.00,0,HR-IXPWINDi_r2_v1.2.,2013-08-02 12:09:00,
2013-08-02 05:15:00,51.6,49.9,29.89,NW,311,0.0,1.0,94,0.00,,,0.00,0,HR-IXPWINDi_r2_v1.2.,2013-08-02 12:15:00,
2013-08-02 05:20:00,51.3,49.6,29.89,NW,311,0.0,1.0,94,0.00,,,0.00,0,HR-IXPWINDi_r2_v1.2.,2013-08-02 12:20:00,
2013-08-02 05:25:00,51.4,49.7,29.89,NW,311,0.0,1.0,94,0.00,,,0.00,0,HR-IXPWINDi_r2_v1.2.,2013-08-02 12:25:00,
2013-08-02 05:31:00,51.5,49.8,29.89,NW,311,0.0,1.0,94,0.00,,,0.00,0,HR-IXPWINDi_r2_v1.2.,2013-08-02 12:31:00,
2013-08-02 05:36:00,51.4,49.7,29.90,NW,311,0.0,1.0,94,0.00,,,0.00,0,HR-IXPWINDi_r2_v1.2.,2013-08-02 12:36:00,
2013-08-02 05:41:00,51.3,49.6,29.90,NW,311,0.0,1.0,94,0.00,,,0.00,0,HR-IXPWINDi_r2_v1.2.,2013-08-02 12:41:00,
2013-08-02 05:46:00,51.3,49.6,29.90,NW,311,0.0,1.0,94,0.00,,,0.00,0,HR-IXPWINDi_r2_v1.2.,2013-08-02 12:46:00,
2013-08-02 05:52:00,51.3,49.6,29.90,NW,311,0.0,1.0,94,0.00,,,0.00,0,HR-IXPWINDi_r2_v1.2.,2013-08-02 12:52:00,
2013-08-02 05:57:00,51.2,49.5,29.90,NW,311,0.0,1.0,94,0.00,,,0.00,0,HR-IXPWINDi_r2_v1.2.,2013-08-02 12:57:00,
2013-08-02 06:02:00,51.0,49.3,29.91,NW,311,0.0,1.0,94,0.00,,,0.00,0,HR-IXPWINDi_r2_v1.2.,2013-08-02 13:02:00,
2013-08-02 06:07:00,50.9,49.2,29.91,NW,311,0.0,1.0,94,0.00,,,0.00,0,HR-IXPWINDi_r2_v1.2.,2013-08-02 13:07:00,
2013-08-02 06:12:00,50.8,49.1,29.91,NW,311,0.0,1.0,94,0.00,,,0.00,5,HR-IXPWINDi_r2_v1.2.,2013-08-02 13:12:00,
2013-08-02 06:17:00,50.8,49.4,29.91,NW,311,0.0,1.0,95,0.00,,,0.00,7,HR-IXPWINDi_r2_v1.2.,2013-08-02 13:17:00,
2013-08-02 06:23:00,51.0,49.6,29.91,NW,311,0.0,1.0,95,0.00,,,0.00,11,HR-IXPWINDi_r2_v1.2.,2013-08-02 13:23:00,
2013-08-02 06:28:00,50.9,49.2,29.91,NW,311,0.0,1.0,94,0.00,,,0.00,12,HR-IXPWINDi_r2_v1.2.,2013-08-02 13:28:00,
2013-08-02 06:33:00,51.0,49.6,29.91,NW,311,0.0,2.0,95,0.00,,,0.00,14,HR-IXPWINDi_r2_v1.2.,2013-08-02 13:33:00,
2013-08-02 06:39:00,51.2,49.8,29.91,NW,311,0.0,2.0,95,0.00,,,0.00,18,HR-IXPWINDi_r2_v1.2.,2013-08-02 13:39:00,
2013-08-02 06:44:00,51.4,50.0,29.91,NW,311,0.0,1.0,95,0.00,,,0.00,19,HR-IXPWINDi_r2_v1.2.,2013-08-02 13:44:00,
2013-08-02 06:49:00,51.8,50.3,29.91,NW,311,0.0,1.0,95,0.00,,,0.00,26,HR-IXPWINDi_r2_v1.2.,2013-08-02 13:49:00,
2013-08-02 06:54:00,52.2,50.7,29.92,NW,311,0.0,3.0,95,0.00,,,0.00,35,HR-IXPWINDi_r2_v1.2.,2013-08-02 13:54:00,
2013-08-02 07:00:00,52.4,50.9,29.91,NW,311,0.0,3.0,95,0.00,,,0.00,76,HR-IXPWINDi_r2_v1.2.,2013-08-02 14:00:00,
2013-08-02 07:05:00,53.3,51.8,29.91,NW,311,0.0,3.0,95,0.00,,,0.00,88,HR-IXPWINDi_r2_v1.2.,2013-08-02 14:05:00,
2013-08-02 07:10:00,54.1,52.6,29.91,NW,311,0.0,3.0,95,0.00,,,0.00,102,HR-IXPWINDi_r2_v1.2.,2013-08-02 14:10:00,
2013-08-02 07:15:00,54.9,53.4,29.92,NW,311,0.0,1.0,95,0.00,,,0.00,95,HR-IXPWINDi_r2_v1.2.,2013-08-02 14:15:00,
2013-08-02 07:20:00,55.7,54.2,29.91,NW,311,0.0,1.0,95,0.00,,,0.00,120,HR-IXPWINDi_r2_v1.2.,2013-08-02 14:20:00,
2013-08-02 07:25:00,56.2,54.4,29.91,NW,311,1.0,2.0,94,0.00,,,0.00,155,HR-IXPWINDi_r2_v1.2.,2013-08-02 14:25:00,
2013-08-02 07:31:00,57.1,55.3,29.91,NW,311,0.0,2.0,94,0.00,,,0.00,169,HR-IXPWINDi_r2_v1.2.,2013-08-02 14:31:00,
2013-08-02 07:36:00,58.2,56.1,29.92,NW,311,0.0,1.0,93,0.00,,,0.00,169,HR-IXPWINDi_r2_v1.2.,2013-08-02 14:36:00,
2013-08-02 07:42:00,58.9,56.5,29.92,NW,311,0.0,1.0,92,0.00,,,0.00,178,HR-IXPWINDi_r2_v1.2.,2013-08-02 14:42:00,
2013-08-02 07:47:00,59.1,56.1,29.92,NW,311,0.0,1.0,90,0.00,,,0.00,207,HR-IXPWINDi_r2_v1.2.,2013-08-02 14:47:00,
2013-08-02 07:52:00,60.1,56.8,29.92,NW,311,0.0,1.0,89,0.00,,,0.00,237,HR-IXPWINDi_r2_v1.2.,2013-08-02 14:52:00,
2013-08-02 07:57:00,60.8,57.2,29.92,NW,312,0.0,2.0,88,0.00,,,0.00,258,HR-IXPWINDi_r2_v1.2.,2013-08-02 14:57:00,
2013-08-02 08:02:00,61.6,57.3,29.92,NW,312,0.0,2.0,86,0.00,,,0.00,274,HR-IXPWINDi_r2_v1.2.,2013-08-02 15:02:00,
2013-08-02 08:07:00,62.2,57.2,29.92,SSE,157,0.0,2.0,84,0.00,,,0.00,288,HR-IXPWINDi_r2_v1.2.,2013-08-02 15:07:00,
2013-08-02 08:13:00,62.9,57.6,29.92,SSE,154,0.0,2.0,83,0.00,,,0.00,301,HR-IXPWINDi_r2_v1.2.,2013-08-02 15:13:00,
2013-08-02 08:18:00,63.4,57.7,29.92,SSE,167,0.0,2.0,82,0.00,,,0.00,309,HR-IXPWINDi_r2_v1.2.,2013-08-02 15:18:00,
2013-08-02 08:24:00,64.2,58.2,29.93,South,172,3.0,3.0,81,0.00,,,0.00,316,HR-IXPWINDi_r2_v1.2.,2013-08-02 15:24:00,
2013-08-02 08:29:00,64.4,58.4,29.93,SSE,159,1.0,4.0,81,0.00,,,0.00,323,HR-IXPWINDi_r2_v1.2.,2013-08-02 15:29:00,
2013-08-02 08:34:00,64.7,58.7,29.93,South,170,1.0,4.0,81,0.00,,,0.00,330,HR-IXPWINDi_r2_v1.2.,2013-08-02 15:34:00,
2013-08-02 08:39:00,65.3,58.9,29.93,East,95,0.0,4.0,80,0.00,,,0.00,338,HR-IXPWINDi_r2_v1.2.,2013-08-02 15:39:00,
2013-08-02 08:44:00,66.2,59.1,29.93,SSE,167,0.0,4.0,78,0.00,,,0.00,348,HR-IXPWINDi_r2_v1.2.,2013-08-02 15:44:00,
2013-08-02 08:49:00,66.7,59.6,29.93,SSE,162,2.0,5.0,78,0.00,,,0.00,355,HR-IXPWINDi_r2_v1.2.,2013-08-02 15:49:00,
2013-08-02 08:54:00,67.4,59.9,29.93,East,91,0.0,5.0,77,0.00,,,0.00,362,HR-IXPWINDi_r2_v1.2.,2013-08-02 15:54:00,
2013-08-02 08:59:00,68.0,59.7,29.93,ENE,74,0.0,4.0,75,0.00,,,0.00,369,HR-IXPWINDi_r2_v1.2.,2013-08-02 15:59:00,
2013-08-02 09:05:00,68.2,59.2,29.92,SSE,167,0.0,5.0,73,0.00,,,0.00,392,HR-IXPWINDi_r2_v1.2.,2013-08-02 16:05:00,
2013-08-02 09:10:00,68.4,60.1,29.92,SSE,165,2.0,5.0,75,0.00,,,0.00,429,HR-IXPWINDi_r2_v1.2.,2013-08-02 16:10:00,
2013-08-02 09:15:00,68.0,59.3,29.92,SSW,195,0.0,5.0,74,0.00,,,0.00,462,HR-IXPWINDi_r2_v1.2.,2013-08-02 16:15:00,
2013-08-02 09:21:00,68.3,59.6,29.92,SSE,165,2.0,5.0,74,0.00,,,0.00,494,HR-IXPWINDi_r2_v1.2.,2013-08-02 16:21:00,
2013-08-02 09:26:00,68.5,59.4,29.92,South,178,2.0,5.0,73,0.00,,,0.00,534,HR-IXPWINDi_r2_v1.2.,2013-08-02 16:26:00,
2013-08-02 09:31:00,69.2,60.5,29.92,South,169,2.0,5.0,74,0.00,,,0.00,561,HR-IXPWINDi_r2_v1.2.,2013-08-02 16:31:00,
2013-08-02 09:36:00,70.7,61.6,29.92,East,99,0.0,6.0,73,0.00,,,0.00,584,HR-IXPWINDi_r2_v1.2.,2013-08-02 16:36:00,
2013-08-02 09:41:00,71.6,61.2,29.92,SE,146,1.0,6.0,70,0.00,,,0.00,603,HR-IXPWINDi_r2_v1.2.,2013-08-02 16:41:00,
2013-08-02 09:47:00,71.9,60.7,29.92,SSW,192,2.0,6.0,68,0.00,,,0.00,622,HR-IXPWINDi_r2_v1.2.,2013-08-02 16:47:00,
2013-08-02 09:52:00,71.0,60.3,29.93,SSE,167,1.0,6.0,69,0.00,,,0.00,635,HR-IXPWINDi_r2_v1.2.,2013-08-02 16:52:00,
2013-08-02 09:57:00,71.1,60.4,29.93,South,190,3.0,8.0,69,0.00,,,0.00,649,HR-IXPWINDi_r2_v1.2.,2013-08-02 16:57:00,
2013-08-02 10:02:00,71.2,60.0,29.93,South,175,2.0,8.0,68,0.00,,,0.00,661,HR-IXPWINDi_r2_v1.2.,2013-08-02 17:02:00,
2013-08-02 10:08:00,72.9,60.8,29.93,SSW,194,6.0,9.0,66,0.00,,,0.00,671,HR-IXPWINDi_r2_v1.2.,2013-08-02 17:08:00,
2013-08-02 10:13:00,73.5,61.8,29.93,South,182,4.0,9.0,67,0.00,,,0.00,689,HR-IXPWINDi_r2_v1.2.,2013-08-02 17:13:00,
2013-08-02 10:18:00,74.5,61.9,29.92,South,188,5.0,7.0,65,0.00,,,0.00,703,HR-IXPWINDi_r2_v1.2.,2013-08-02 17:18:00,
2013-08-02 10:23:00,75.3,61.8,29.92,SSE,157,2.0,7.0,63,0.00,,,0.00,707,HR-IXPWINDi_r2_v1.2.,2013-08-02 17:23:00,
2013-08-02 10:29:00,75.6,62.1,29.93,SE,132,4.0,7.0,63,0.00,,,0.00,715,HR-IXPWINDi_r2_v1.2.,2013-08-02 17:29:00,
2013-08-02 10:34:00,74.5,61.5,29.93,NE,53,1.0,8.0,64,0.00,,,0.00,733,HR-IXPWINDi_r2_v1.2.,2013-08-02 17:34:00,
2013-08-02 10:39:00,76.3,62.3,29.93,SE,142,2.0,8.0,62,0.00,,,0.00,717,HR-IXPWINDi_r2_v1.2.,2013-08-02 17:39:00,
2013-08-02 10:44:00,74.4,60.5,29.92,SSE,150,3.0,7.0,62,0.00,,,0.00,717,HR-IXPWINDi_r2_v1.2.,2013-08-02 17:44:00,
2013-08-02 10:49:00,74.9,62.3,29.93,SSE,155,0.0,8.0,65,0.00,,,0.00,726,HR-IXPWINDi_r2_v1.2.,2013-08-02 17:49:00,
2013-08-02 10:54:00,76.3,62.7,29.93,South,174,5.0,8.0,63,0.00,,,0.00,738,HR-IXPWINDi_r2_v1.2.,2013-08-02 17:54:00,
2013-08-02 11:00:00,77.2,62.2,29.92,ENE,71,0.0,7.0,60,0.00,,,0.00,751,HR-IXPWINDi_r2_v1.2.,2013-08-02 18:00:00,
2013-08-02 11:05:00,77.2,61.7,29.93,SSE,162,5.0,8.0,59,0.00,,,0.00,770,HR-IXPWINDi_r2_v1.2.,2013-08-02 18:05:00,
2013-08-02 11:10:00,76.2,61.7,29.92,SE,142,3.0,9.0,61,0.00,,,0.00,775,HR-IXPWINDi_r2_v1.2.,2013-08-02 18:10:00,
2013-08-02 11:15:00,77.5,62.0,29.92,SSE,165,7.0,9.0,59,0.00,,,0.00,819,HR-IXPWINDi_r2_v1.2.,2013-08-02 18:15:00,
2013-08-02 11:20:00,77.7,62.7,29.92,South,174,2.0,10.0,60,0.00,,,0.00,856,HR-IXPWINDi_r2_v1.2.,2013-08-02 18:20:00,
2013-08-02 11:25:00,78.2,62.6,29.92,ESE,119,0.0,10.0,59,0.00,,,0.00,853,HR-IXPWINDi_r2_v1.2.,2013-08-02 18:25:00,
2013-08-02 11:30:00,77.3,61.3,29.92,South,175,3.0,9.0,58,0.00,,,0.00,872,HR-IXPWINDi_r2_v1.2.,2013-08-02 18:30:00,
2013-08-02 11:36:00,76.0,61.5,29.92,South,174,7.0,10.0,61,0.00,,,0.00,768,HR-IXPWINDi_r2_v1.2.,2013-08-02 18:36:00,
2013-08-02 11:41:00,77.8,62.8,29.92,South,188,4.0,10.0,60,0.00,,,0.00,872,HR-IXPWINDi_r2_v1.2.,2013-08-02 18:41:00,
2013-08-02 11:46:00,78.4,62.4,29.92,SSW,213,4.0,9.0,58,0.00,,,0.00,860,HR-IXPWINDi_r2_v1.2.,2013-08-02 18:46:00,
2013-08-02 11:51:00,76.4,61.9,29.92,South,172,0.0,9.0,61,0.00,,,0.00,846,HR-IXPWINDi_r2_v1.2.,2013-08-02 18:51:00,
2013-08-02 11:56:00,78.4,61.4,29.92,SSE,158,1.0,9.0,56,0.00,,,0.00,759,HR-IXPWINDi_r2_v1.2.,2013-08-02 18:56:00,
2013-08-02 12:01:00,76.7,61.2,29.92,SSE,156,5.0,9.0,59,0.00,,,0.00,821,HR-IXPWINDi_r2_v1.2.,2013-08-02 19:01:00,
2013-08-02 12:06:00,78.0,62.9,29.91,East,88,2.0,9.0,60,0.00,,,0.00,812,HR-IXPWINDi_r2_v1.2.,2013-08-02 19:06:00,
2013-08-02 12:12:00,79.3,62.7,29.91,SSW,192,3.0,9.0,57,0.00,,,0.00,916,HR-IXPWINDi_r2_v1.2.,2013-08-02 19:12:00,
2013-08-02 12:17:00,78.2,61.2,29.91,South,188,5.0,9.0,56,0.00,,,0.00,921,HR-IXPWINDi_r2_v1.2.,2013-08-02 19:17:00,
2013-08-02 12:22:00,77.1,62.1,29.91,South,170,1.0,8.0,60,0.00,,,0.00,928,HR-IXPWINDi_r2_v1.2.,2013-08-02 19:22:00,
2013-08-02 12:27:00,79.1,63.0,29.91,South,184,4.0,11.0,58,0.00,,,0.00,937,HR-IXPWINDi_r2_v1.2.,2013-08-02 19:27:00,
2013-08-02 12:33:00,80.3,62.6,29.91,South,186,1.0,11.0,55,0.00,,,0.00,909,HR-IXPWINDi_r2_v1.2.,2013-08-02 19:33:00,
2013-08-02 12:38:00,80.1,61.4,29.91,SSW,202,5.0,12.0,53,0.00,,,0.00,912,HR-IXPWINDi_r2_v1.2.,2013-08-02 19:38:00,
2013-08-02 12:43:00,80.4,63.2,29.91,NNW,342,0.0,12.0,56,0.00,,,0.00,833,HR-IXPWINDi_r2_v1.2.,2013-08-02 19:43:00,
2013-08-02 12:48:00,80.9,62.7,29.90,South,177,3.0,9.0,54,0.00,,,0.00,647,HR-IXPWINDi_r2_v1.2.,2013-08-02 19:48:00,
2013-08-02 12:53:00,79.0,61.9,29.91,SSE,147,1.0,10.0,56,0.00,,,0.00,756,HR-IXPWINDi_r2_v1.2.,2013-08-02 19:53:00,
2013-08-02 12:58:00,79.9,63.3,29.90,ESE,123,4.0,10.0,57,0.00,,,0.00,831,HR-IXPWINDi_r2_v1.2.,2013-08-02 19:58:00,
2013-08-02 13:03:00,79.3,63.2,29.90,ESE,121,3.0,8.0,58,0.00,,,0.00,889,HR-IXPWINDi_r2_v1.2.,2013-08-02 20:03:00,
2013-08-02 13:09:00,79.6,62.5,29.90,SSW,199,7.0,8.0,56,0.00,,,0.00,976,HR-IXPWINDi_r2_v1.2.,2013-08-02 20:09:00,
2013-08-02 13:14:00,78.3,62.3,29.90,SSW,202,6.0,8.0,58,0.00,,,0.00,951,HR-IXPWINDi_r2_v1.2.,2013-08-02 20:14:00,
2013-08-02 13:19:00,78.7,63.1,29.90,South,171,6.0,9.0,59,0.00,,,0.00,568,HR-IXPWINDi_r2_v1.2.,2013-08-02 20:19:00,
2013-08-02 13:24:00,79.2,62.6,29.90,SSE,165,3.0,9.0,57,0.00,,,0.00,554,HR-IXPWINDi_r2_v1.2.,2013-08-02 20:24:00,
2013-08-02 13:30:00,78.2,61.7,29.90,SSW,192,5.0,10.0,57,0.00,,,0.00,977,HR-IXPWINDi_r2_v1.2.,2013-08-02 20:30:00,
2013-08-02 13:35:00,78.1,61.6,29.90,SSW,195,4.0,10.0,57,0.00,,,0.00,953,HR-IXPWINDi_r2_v1.2.,2013-08-02 20:35:00,
2013-08-02 13:40:00,79.2,62.1,29.89,South,188,8.0,10.0,56,0.00,,,0.00,921,HR-IXPWINDi_r2_v1.2.,2013-08-02 20:40:00,
2013-08-02 13:45:00,79.1,62.5,29.89,SSE,167,5.0,10.0,57,0.00,,,0.00,875,HR-IXPWINDi_r2_v1.2.,2013-08-02 20:45:00,
2013-08-02 13:50:00,79.9,62.2,29.89,South,173,3.0,9.0,55,0.00,,,0.00,947,HR-IXPWINDi_r2_v1.2.,2013-08-02 20:50:00,
2013-08-02 13:55:00,79.2,61.6,29.89,SSE,163,7.0,11.0,55,0.00,,,0.00,947,HR-IXPWINDi_r2_v1.2.,2013-08-02 20:55:00,
2013-08-02 14:00:00,78.5,62.0,29.89,SSW,202,7.0,11.0,57,0.00,,,0.00,891,HR-IXPWINDi_r2_v1.2.,2013-08-02 21:00:00,
2013-08-02 14:06:00,78.1,62.1,29.89,South,180,6.0,10.0,58,0.00,,,0.00,935,HR-IXPWINDi_r2_v1.2.,2013-08-02 21:06:00,
2013-08-02 14:11:00,78.0,61.0,29.89,SSW,204,2.0,10.0,56,0.00,,,0.00,953,HR-IXPWINDi_r2_v1.2.,2013-08-02 21:11:00,
2013-08-02 14:16:00,78.0,61.0,29.89,South,184,11.0,11.0,56,0.00,,,0.00,947,HR-IXPWINDi_r2_v1.2.,2013-08-02 21:16:00,
2013-08-02 14:22:00,80.6,62.4,29.89,SSE,152,4.0,11.0,54,0.00,,,0.00,664,HR-IXPWINDi_r2_v1.2.,2013-08-02 21:22:00,
2013-08-02 14:27:00,79.7,61.5,29.89,South,178,5.0,10.0,54,0.00,,,0.00,946,HR-IXPWINDi_r2_v1.2.,2013-08-02 21:27:00,
2013-08-02 14:32:00,79.3,61.2,29.89,SSW,194,1.0,10.0,54,0.00,,,0.00,940,HR-IXPWINDi_r2_v1.2.,2013-08-02 21:32:00,
2013-08-02 14:37:00,80.2,62.0,29.89,SSE,161,6.0,11.0,54,0.00,,,0.00,923,HR-IXPWINDi_r2_v1.2.,2013-08-02 21:37:00,
2013-08-02 14:42:00,79.5,60.8,29.89,South,187,3.0,11.0,53,0.00,,,0.00,803,HR-IXPWINDi_r2_v1.2.,2013-08-02 21:42:00,
2013-08-02 14:47:00,79.2,61.1,29.88,SSE,159,2.0,10.0,54,0.00,,,0.00,573,HR-IXPWINDi_r2_v1.2.,2013-08-02 21:47:00,
2013-08-02 14:52:00,78.9,61.3,29.88,SSW,193,2.0,10.0,55,0.00,,,0.00,923,HR-IXPWINDi_r2_v1.2.,2013-08-02 21:52:00,
2013-08-02 14:58:00,81.2,61.3,29.88,SSW,194,4.0,9.0,51,0.00,,,0.00,896,HR-IXPWINDi_r2_v1.2.,2013-08-02 21:58:00,
2013-08-02 15:03:00,81.0,61.1,29.88,South,187,5.0,10.0,51,0.00,,,0.00,900,HR-IXPWINDi_r2_v1.2.,2013-08-02 22:03:00,
2013-08-02 15:08:00,79.3,59.6,29.88,SSW,200,7.0,10.0,51,0.00,,,0.00,239,HR-IXPWINDi_r2_v1.2.,2013-08-02 22:08:00,
2013-08-02 15:13:00,75.7,59.8,29.88,South,184,4.0,9.0,58,0.00,,,0.00,276,HR-IXPWINDi_r2_v1.2.,2013-08-02 22:13:00,
2013-08-02 15:18:00,75.2,59.4,29.88,SW,216,6.0,11.0,58,0.00,,,0.00,483,HR-IXPWINDi_r2_v1.2.,2013-08-02 22:18:00,
2013-08-02 15:24:00,74.4,59.1,29.88,SSE,161,4.0,11.0,59,0.00,,,0.00,338,HR-IXPWINDi_r2_v1.2.,2013-08-02 22:24:00,
2013-08-02 15:29:00,74.0,59.6,29.89,South,185,9.0,10.0,61,0.00,,,0.00,608,HR-IXPWINDi_r2_v1.2.,2013-08-02 22:29:00,
2013-08-02 15:34:00,75.1,60.7,29.88,South,172,0.0,10.0,61,0.00,,,0.00,856,HR-IXPWINDi_r2_v1.2.,2013-08-02 22:34:00,
2013-08-02 15:39:00,77.1,61.1,29.88,South,189,0.0,10.0,58,0.00,,,0.00,868,HR-IXPWINDi_r2_v1.2.,2013-08-02 22:39:00,
2013-08-02 15:45:00,76.8,60.4,29.88,South,185,5.0,10.0,57,0.00,,,0.00,686,HR-IXPWINDi_r2_v1.2.,2013-08-02 22:45:00,
2013-08-02 15:50:00,77.0,60.6,29.88,South,175,0.0,9.0,57,0.00,,,0.00,432,HR-IXPWINDi_r2_v1.2.,2013-08-02 22:50:00,
2013-08-02 15:55:00,76.5,60.1,29.88,South,178,4.0,8.0,57,0.00,,,0.00,257,HR-IXPWINDi_r2_v1.2.,2013-08-02 22:55:00,
2013-08-02 16:01:00,75.8,61.3,29.88,South,169,2.0,8.0,61,0.00,,,0.00,554,HR-IXPWINDi_r2_v1.2.,2013-08-02 23:01:00,
2013-08-02 16:06:00,75.4,61.0,29.88,SE,133,3.0,8.0,61,0.00,,,0.00,413,HR-IXPWINDi_r2_v1.2.,2013-08-02 23:06:00,
2013-08-02 16:11:00,74.6,60.2,29.88,ESE,115,4.0,8.0,61,0.00,,,0.00,230,HR-IXPWINDi_r2_v1.2.,2013-08-02 23:11:00,
2013-08-02 16:16:00,74.6,61.1,29.88,SSE,168,4.0,8.0,63,0.00,,,0.00,698,HR-IXPWINDi_r2_v1.2.,2013-08-02 23:16:00,
2013-08-02 16:22:00,75.5,61.1,29.88,SSE,148,7.0,9.0,61,0.00,,,0.00,744,HR-IXPWINDi_r2_v1.2.,2013-08-02 23:22:00,
2013-08-02 16:27:00,75.5,60.6,29.88,South,187,1.0,9.0,60,0.00,,,0.00,490,HR-IXPWINDi_r2_v1.2.,2013-08-02 23:27:00,
2013-08-02 16:32:00,75.6,60.7,29.88,SSW,198,3.0,9.0,60,0.00,,,0.00,359,HR-IXPWINDi_r2_v1.2.,2013-08-02 23:32:00,
2013-08-02 16:37:00,75.2,61.2,29.88,SSW,199,3.0,8.0,62,0.00,,,0.00,547,HR-IXPWINDi_r2_v1.2.,2013-08-02 23:37:00,
2013-08-02 16:42:00,74.9,60.9,29.88,South,170,5.0,8.0,62,0.00,,,0.00,520,HR-IXPWINDi_r2_v1.2.,2013-08-02 23:42:00,
2013-08-02 16:47:00,74.9,60.9,29.87,South,186,5.0,7.0,62,0.00,,,0.00,301,HR-IXPWINDi_r2_v1.2.,2013-08-02 23:47:00,
2013-08-02 16:52:00,74.9,60.9,29.87,SSE,160,8.0,8.0,62,0.00,,,0.00,373,HR-IXPWINDi_r2_v1.2.,2013-08-02 23:52:00,
2013-08-02 16:58:00,73.8,60.4,29.87,ESE,119,1.0,9.0,63,0.00,,,0.00,204,HR-IXPWINDi_r2_v1.2.,2013-08-02 23:58:00,
2013-08-02 17:03:00,72.9,60.4,29.87,South,182,3.0,9.0,65,0.00,,,0.00,125,HR-IXPWINDi_r2_v1.2.,2013-08-03 00:03:00,
2013-08-02 17:08:00,72.1,60.5,29.87,South,180,6.0,8.0,67,0.00,,,0.00,190,HR-IXPWINDi_r2_v1.2.,2013-08-03 00:08:00,
2013-08-02 17:13:00,72.4,61.2,29.87,South,176,3.0,8.0,68,0.00,,,0.00,464,HR-IXPWINDi_r2_v1.2.,2013-08-03 00:13:00,
2013-08-02 17:18:00,73.5,61.0,29.87,West,269,2.0,8.0,65,0.00,,,0.00,439,HR-IXPWINDi_r2_v1.2.,2013-08-03 00:18:00,
2013-08-02 17:24:00,73.0,60.5,29.87,South,179,5.0,6.0,65,0.00,,,0.00,381,HR-IXPWINDi_r2_v1.2.,2013-08-03 00:24:00,
2013-08-02 17:29:00,72.3,59.8,29.87,SW,220,1.0,7.0,65,0.00,,,0.00,244,HR-IXPWINDi_r2_v1.2.,2013-08-03 00:29:00,
2013-08-02 17:34:00,72.3,61.1,29.87,South,180,3.0,7.0,68,0.00,,,0.00,192,HR-IXPWINDi_r2_v1.2.,2013-08-03 00:34:00,
2013-08-02 17:39:00,71.6,60.0,29.87,South,186,3.0,8.0,67,0.00,,,0.00,160,HR-IXPWINDi_r2_v1.2.,2013-08-03 00:39:00,
2013-08-02 17:44:00,70.9,59.8,29.87,SSW,206,6.0,9.0,68,0.00,,,0.00,186,HR-IXPWINDi_r2_v1.2.,2013-08-03 00:44:00,
2013-08-02 17:49:00,70.8,60.1,29.87,South,188,5.0,9.0,69,0.00,,,0.00,181,HR-IXPWINDi_r2_v1.2.,2013-08-03 00:49:00,
2013-08-02 17:54:00,71.0,60.7,29.87,SSE,153,2.0,8.0,70,0.00,,,0.00,327,HR-IXPWINDi_r2_v1.2.,2013-08-03 00:54:00,
2013-08-02 17:59:00,71.4,60.2,29.87,SSE,160,3.0,8.0,68,0.00,,,0.00,246,HR-IXPWINDi_r2_v1.2.,2013-08-03 00:59:00,
2013-08-02 18:05:00,70.0,59.3,29.87,WSW,242,1.0,7.0,69,0.00,,,0.00,183,HR-IXPWINDi_r2_v1.2.,2013-08-03 01:05:00,
2013-08-02 18:10:00,69.8,59.5,29.86,West,260,2.0,7.0,70,0.00,,,0.00,301,HR-IXPWINDi_r2_v1.2.,2013-08-03 01:10:00,
2013-08-02 18:15:00,70.8,60.1,29.86,SSE,163,4.0,6.0,69,0.00,,,0.00,243,HR-IXPWINDi_r2_v1.2.,2013-08-03 01:15:00,
2013-08-02 18:20:00,71.3,60.1,29.86,South,178,4.0,6.0,68,0.00,,,0.00,236,HR-IXPWINDi_r2_v1.2.,2013-08-03 01:20:00,
2013-08-02 18:25:00,71.9,60.7,29.86,SSE,165,0.0,6.0,68,0.00,,,0.00,221,HR-IXPWINDi_r2_v1.2.,2013-08-03 01:25:00,
2013-08-02 18:30:00,71.3,60.1,29.86,South,169,4.0,6.0,68,0.00,,,0.00,84,HR-IXPWINDi_r2_v1.2.,2013-08-03 01:30:00,
2013-08-02 18:36:00,70.2,59.5,29.86,South,183,3.0,7.0,69,0.00,,,0.00,76,HR-IXPWINDi_r2_v1.2.,2013-08-03 01:36:00,
2013-08-02 18:41:00,69.6,59.3,29.86,SSE,159,3.0,7.0,70,0.00,,,0.00,63,HR-IXPWINDi_r2_v1.2.,2013-08-03 01:41:00,
2013-08-02 18:46:00,69.1,59.2,29.87,SSE,163,3.0,5.0,71,0.00,,,0.00,58,HR-IXPWINDi_r2_v1.2.,2013-08-03 01:46:00,
2013-08-02 18:52:00,68.6,59.2,29.87,South,175,4.0,5.0,72,0.00,,,0.00,54,HR-IXPWINDi_r2_v1.2.,2013-08-03 01:52:00,
2013-08-02 18:57:00,68.1,59.1,29.87,SSE,168,3.0,5.0,73,0.00,,,0.00,51,HR-IXPWINDi_r2_v1.2.,2013-08-03 01:57:00,
2013-08-02 19:02:00,67.5,58.9,29.87,SSW,200,5.0,7.0,74,0.00,,,0.00,51,HR-IXPWINDi_r2_v1.2.,2013-08-03 02:02:00,
2013-08-02 19:07:00,66.8,58.6,29.87,West,265,3.0,7.0,75,0.00,,,0.00,47,HR-IXPWINDi_r2_v1.2.,2013-08-03 02:07:00,
2013-08-02 19:12:00,66.2,58.3,29.87,South,175,2.0,6.0,76,0.00,,,0.00,39,HR-IXPWINDi_r2_v1.2.,2013-08-03 02:12:00,
2013-08-02 19:18:00,65.9,58.4,29.87,SSE,167,2.0,5.0,77,0.00,,,0.00,33,HR-IXPWINDi_r2_v1.2.,2013-08-03 02:18:00,
2013-08-02 19:23:00,65.6,58.1,29.87,South,180,2.0,5.0,77,0.00,,,0.00,30,HR-IXPWINDi_r2_v1.2.,2013-08-03 02:23:00,
2013-08-02 19:28:00,65.4,58.3,29.87,South,178,3.0,6.0,78,0.00,,,0.00,26,HR-IXPWINDi_r2_v1.2.,2013-08-03 02:28:00,
2013-08-02 19:33:00,65.2,58.1,29.87,South,191,2.0,6.0,78,0.00,,,0.00,21,HR-IXPWINDi_r2_v1.2.,2013-08-03 02:33:00,
2013-08-02 19:38:00,64.9,58.2,29.87,SW,222,2.0,6.0,79,0.00,,,0.00,16,HR-IXPWINDi_r2_v1.2.,2013-08-03 02:38:00,
2013-08-02 19:43:00,64.8,58.1,29.87,SSE,147,1.0,6.0,79,0.00,,,0.00,12,HR-IXPWINDi_r2_v1.2.,2013-08-03 02:43:00,
2013-08-02 19:48:00,64.8,58.1,29.87,South,189,1.0,5.0,79,0.00,,,0.00,7,HR-IXPWINDi_r2_v1.2.,2013-08-03 02:48:00,
2013-08-02 19:53:00,64.6,58.2,29.88,SSE,168,0.0,5.0,80,0.00,,,0.00,5,HR-IXPWINDi_r2_v1.2.,2013-08-03 02:53:00,
2013-08-02 19:58:00,64.3,57.9,29.88,SSE,168,2.0,4.0,80,0.00,,,0.00,5,HR-IXPWINDi_r2_v1.2.,2013-08-03 02:58:00,
2013-08-02 20:04:00,64.0,57.6,29.88,SSE,168,0.0,3.0,80,0.00,,,0.00,5,HR-IXPWINDi_r2_v1.2.,2013-08-03 03:04:00,
2013-08-02 20:09:00,63.8,57.8,29.88,SSE,168,2.0,3.0,81,0.00,,,0.00,0,HR-IXPWINDi_r2_v1.2.,2013-08-03 03:09:00,
2013-08-02 20:14:00,63.5,57.5,29.88,SSE,168,1.0,3.0,81,0.00,,,0.00,0,HR-IXPWINDi_r2_v1.2.,2013-08-03 03:14:00,
2013-08-02 20:19:00,63.2,57.5,29.88,SSE,168,0.0,3.0,82,0.00,,,0.00,0,HR-IXPWINDi_r2_v1.2.,2013-08-03 03:19:00,
2013-08-02 20:25:00,63.0,57.4,29.88,SSE,168,0.0,3.0,82,0.00,,,0.00,0,HR-IXPWINDi_r2_v1.2.,2013-08-03 03:25:00,
2013-08-02 20:30:00,62.7,57.1,29.88,SSE,160,0.0,3.0,82,0.00,,,0.00,0,HR-IXPWINDi_r2_v1.2.,2013-08-03 03:30:00,
2013-08-02 20:36:00,62.5,57.2,29.89,SSE,163,0.0,3.0,83,0.00,,,0.00,0,HR-IXPWINDi_r2_v1.2.,2013-08-03 03:36:00,
2013-08-02 20:41:00,62.2,56.9,29.89,SSE,163,0.0,3.0,83,0.00,,,0.00,0,HR-IXPWINDi_r2_v1.2.,2013-08-03 03:41:00,
2013-08-02 20:46:00,62.0,57.0,29.89,SSE,163,0.0,1.0,84,0.00,,,0.00,0,HR-IXPWINDi_r2_v1.2.,2013-08-03 03:46:00,
2013-08-02 20:51:00,61.9,56.9,29.89,SSE,163,0.0,1.0,84,0.00,,,0.00,0,HR-IXPWINDi_r2_v1.2.,2013-08-03 03:51:00,
2013-08-02 20:56:00,61.7,56.8,29.89,SSE,163,0.0,1.0,84,0.00,,,0.00,0,HR-IXPWINDi_r2_v1.2.,2013-08-03 03:56:00,
2013-08-02 21:01:00,61.6,56.7,29.89,SSE,163,0.0,1.0,84,0.00,,,0.00,0,HR-IXPWINDi_r2_v1.2.,2013-08-03 04:01:00,
2013-08-02 21:06:00,61.4,56.5,29.90,SSE,163,0.0,1.0,84,0.00,,,0.00,0,HR-IXPWINDi_r2_v1.2.,2013-08-03 04:06:00,
2013-08-02 21:11:00,61.3,56.7,29.90,SSE,163,0.0,1.0,85,0.00,,,0.00,0,HR-IXPWINDi_r2_v1.2.,2013-08-03 04:11:00,
2013-08-02 21:16:00,61.0,56.4,29.90,SSE,163,0.0,1.0,85,0.00,,,0.00,0,HR-IXPWINDi_r2_v1.2.,2013-08-03 04:16:00,
2013-08-02 21:22:00,60.9,56.3,29.91,SSE,163,0.0,1.0,85,0.00,,,0.00,0,HR-IXPWINDi_r2_v1.2.,2013-08-03 04:22:00,
2013-08-02 21:27:00,60.7,56.1,29.91,SSE,163,0.0,0.0,85,0.00,,,0.00,0,HR-IXPWINDi_r2_v1.2.,2013-08-03 04:27:00,
2013-08-02 21:32:00,60.3,56.0,29.91,SSE,163,0.0,0.0,86,0.00,,,0.00,0,HR-IXPWINDi_r2_v1.2.,2013-08-03 04:32:00,
2013-08-02 21:38:00,59.9,55.6,29.91,SSE,163,0.0,0.0,86,0.00,,,0.00,0,HR-IXPWINDi_r2_v1.2.,2013-08-03 04:38:00,
2013-08-02 21:43:00,59.6,55.7,29.91,SSE,163,0.0,0.0,87,0.00,,,0.00,0,HR-IXPWINDi_r2_v1.2.,2013-08-03 04:43:00,
2013-08-02 21:48:00,59.4,55.5,29.91,SSE,163,0.0,0.0,87,0.00,,,0.00,0,HR-IXPWINDi_r2_v1.2.,2013-08-03 04:48:00,
2013-08-02 21:53:00,59.2,55.6,29.92,SSE,163,0.0,0.0,88,0.00,,,0.00,0,HR-IXPWINDi_r2_v1.2.,2013-08-03 04:53:00,
2013-08-02 21:58:00,59.0,55.4,29.92,SSE,163,0.0,0.0,88,0.00,,,0.00,0,HR-IXPWINDi_r2_v1.2.,2013-08-03 04:58:00,
2013-08-02 22:03:00,58.7,55.4,29.92,SSE,163,0.0,0.0,89,0.00,,,0.00,0,HR-IXPWINDi_r2_v1.2.,2013-08-03 05:03:00,
2013-08-02 22:09:00,58.4,55.1,29.92,SSE,163,0.0,0.0,89,0.00,,,0.00,0,HR-IXPWINDi_r2_v1.2.,2013-08-03 05:09:00,
2013-08-02 22:14:00,58.4,55.1,29.92,SSE,163,0.0,0.0,89,0.00,,,0.00,0,HR-IXPWINDi_r2_v1.2.,2013-08-03 05:14:00,
2013-08-02 22:19:00,58.3,55.0,29.92,SSE,163,0.0,0.0,89,0.00,,,0.00,0,HR-IXPWINDi_r2_v1.2.,2013-08-03 05:19:00,
2013-08-02 22:24:00,58.2,54.9,29.92,SSE,163,0.0,0.0,89,0.00,,,0.00,0,HR-IXPWINDi_r2_v1.2.,2013-08-03 05:24:00,
2013-08-02 22:30:00,57.8,54.5,29.92,SSE,163,0.0,0.0,89,0.00,,,0.00,0,HR-IXPWINDi_r2_v1.2.,2013-08-03 05:30:00,
2013-08-02 22:35:00,57.5,54.2,29.92,SSE,163,0.0,0.0,89,0.00,,,0.00,0,HR-IXPWINDi_r2_v1.2.,2013-08-03 05:35:00,
2013-08-02 22:40:00,57.6,54.6,29.92,SSE,163,0.0,0.0,90,0.00,,,0.00,0,HR-IXPWINDi_r2_v1.2.,2013-08-03 05:40:00,
2013-08-02 22:45:00,57.6,54.6,29.92,SSE,163,0.0,0.0,90,0.00,,,0.00,0,HR-IXPWINDi_r2_v1.2.,2013-08-03 05:45:00,
2013-08-02 22:50:00,57.2,53.9,29.92,SSE,163,0.0,0.0,89,0.00,,,0.00,0,HR-IXPWINDi_r2_v1.2.,2013-08-03 05:50:00,
2013-08-02 22:55:00,57.0,54.0,29.92,SSE,163,0.0,0.0,90,0.00,,,0.00,0,HR-IXPWINDi_r2_v1.2.,2013-08-03 05:55:00,
2013-08-02 23:01:00,56.9,53.9,29.92,SSE,163,0.0,0.0,90,0.00,,,0.00,0,HR-IXPWINDi_r2_v1.2.,2013-08-03 06:01:00,
2013-08-02 23:06:00,56.8,54.1,29.92,SSE,163,0.0,0.0,91,0.00,,,0.00,0,HR-IXPWINDi_r2_v1.2.,2013-08-03 06:06:00,
2013-08-02 23:11:00,56.6,53.9,29.92,SSE,163,0.0,0.0,91,0.00,,,0.00,0,HR-IXPWINDi_r2_v1.2.,2013-08-03 06:11:00,
2013-08-02 23:16:00,56.7,54.0,29.92,SSE,163,0.0,0.0,91,0.00,,,0.00,0,HR-IXPWINDi_r2_v1.2.,2013-08-03 06:16:00,
2013-08-02 23:21:00,56.6,53.9,29.92,SSE,163,0.0,0.0,91,0.00,,,0.00,0,HR-IXPWINDi_r2_v1.2.,2013-08-03 06:21:00,
2013-08-02 23:26:00,56.5,53.8,29.92,SSE,163,0.0,0.0,91,0.00,,,0.00,0,HR-IXPWINDi_r2_v1.2.,2013-08-03 06:26:00,
2013-08-02 23:31:00,56.4,53.7,29.93,SSE,163,0.0,0.0,91,0.00,,,0.00,0,HR-IXPWINDi_r2_v1.2.,2013-08-03 06:31:00,
2013-08-02 23:36:00,56.2,53.5,29.93,SSE,163,0.0,0.0,91,0.00,,,0.00,0,HR-IXPWINDi_r2_v1.2.,2013-08-03 06:36:00,
2013-08-02 23:42:00,56.1,53.4,29.93,SSE,163,0.0,0.0,91,0.00,,,0.00,0,HR-IXPWINDi_r2_v1.2.,2013-08-03 06:42:00,
2013-08-02 23:47:00,56.2,53.8,29.93,SSE,163,0.0,0.0,92,0.00,,,0.00,0,HR-IXPWINDi_r2_v1.2.,2013-08-03 06:47:00,
2013-08-02 23:52:00,56.2,53.8,29.93,SSE,163,0.0,0.0,92,0.00,,,0.00,0,HR-IXPWINDi_r2_v1.2.,2013-08-03 06:52:00,
2013-08-02 23:57:00,56.3,53.6,29.93,SSE,163,0.0,0.0,91,0.00,,,0.00,0,HR-IXPWINDi_r2_v1.2.,2013-08-03 06:57:00,